createdAt,value
2022-08-10T00:00:58.686Z,13.40
2022-08-10T00:06:02.907Z,13.34
2022-08-10T00:11:15.204Z,13.30
2022-08-10T00:16:21.096Z,13.20
2022-08-10T00:21:28.009Z,13.20
2022-08-10T00:28:01.010Z,13.12
2022-08-10T00:31:59.140Z,13.10
2022-08-10T00:37:03.710Z,13.08
2022-08-10T00:42:10.201Z,13.00
2022-08-10T00:47:35.560Z,13.00
2022-08-10T00:52:41.061Z,12.90
2022-08-10T00:57:46.381Z,12.90
2022-08-10T01:02:59.498Z,12.80
2022-08-10T01:08:41.837Z,12.72
2022-08-10T01:14:08.278Z,12.70
2022-08-10T01:19:42.303Z,12.60
2022-08-10T01:25:10.892Z,12.50
2022-08-10T01:30:18.809Z,12.50
2022-08-10T01:35:42.087Z,12.40
2022-08-10T01:41:24.600Z,12.40
2022-08-10T01:46:31.806Z,12.30
2022-08-10T01:51:50.151Z,12.30
2022-08-10T01:56:58.833Z,12.22
2022-08-10T02:02:09.211Z,12.20
2022-08-10T02:07:19.029Z,12.20
2022-08-10T02:12:30.098Z,12.10
2022-08-10T02:17:57.426Z,12.00
2022-08-10T02:23:10.530Z,11.90
2022-08-10T02:28:27.151Z,11.90
2022-08-10T02:33:38.092Z,11.80
2022-08-10T02:38:58.028Z,11.80
2022-08-10T02:45:19.190Z,11.70
2022-08-10T02:50:28.720Z,11.70
2022-08-10T02:55:54.440Z,11.70
2022-08-10T03:01:04.767Z,11.60
2022-08-10T03:06:16.796Z,11.62
2022-08-10T03:12:35.362Z,11.86
2022-08-10T03:16:56.526Z,12.06
2022-08-10T03:22:03.535Z,12.20
2022-08-10T03:27:08.503Z,12.34
2022-08-10T03:32:14.278Z,12.48
2022-08-10T03:37:18.389Z,12.60
2022-08-10T03:42:26.987Z,12.70
2022-08-10T03:47:32.893Z,12.78
2022-08-10T03:52:37.593Z,12.80
2022-08-10T03:57:49.476Z,12.90
2022-08-10T04:02:56.378Z,13.00
2022-08-10T04:08:02.384Z,12.90
2022-08-10T04:13:07.032Z,13.00
2022-08-10T04:18:14.189Z,13.10
2022-08-10T04:23:27.849Z,13.20
2022-08-10T04:28:32.779Z,13.20
2022-08-10T04:33:42.071Z,13.30
2022-08-10T04:38:48.542Z,13.40
2022-08-10T04:43:52.909Z,13.70
2022-08-10T04:49:01.932Z,13.90
2022-08-10T04:54:08.142Z,14.10
2022-08-10T04:59:13.362Z,14.30
2022-08-10T05:04:34.355Z,14.60
2022-08-10T05:10:03.539Z,15.00
2022-08-10T05:15:15.640Z,15.30
2022-08-10T05:20:22.610Z,15.70
2022-08-10T05:25:27.072Z,16.08
2022-08-10T05:30:32.128Z,16.46
2022-08-10T05:35:56.417Z,16.70
2022-08-10T05:41:07.515Z,16.90
2022-08-10T05:46:17.901Z,17.10
2022-08-10T05:51:26.544Z,17.50
2022-08-10T05:56:56.139Z,17.70
2022-08-10T06:02:33.986Z,17.76
2022-08-10T06:07:30.198Z,18.10
2022-08-10T06:12:54.956Z,18.40
2022-08-10T06:18:01.947Z,18.68
2022-08-10T06:23:07.898Z,18.90
2022-08-10T06:28:17.758Z,19.30
2022-08-10T06:33:27.267Z,19.72
2022-08-10T06:38:36.417Z,20.06
2022-08-10T06:43:48.309Z,20.20
2022-08-10T06:48:59.888Z,20.52
2022-08-10T06:54:18.040Z,21.00
2022-08-10T06:59:39.166Z,21.40
2022-08-10T07:05:05.809Z,21.80
2022-08-10T07:10:12.678Z,21.94
2022-08-10T07:15:18.751Z,22.18
2022-08-10T07:20:25.483Z,22.30
2022-08-10T07:25:31.239Z,22.76
2022-08-10T07:30:40.322Z,22.90
2022-08-10T07:35:47.884Z,23.36
2022-08-10T07:40:54.891Z,23.70
2022-08-10T07:46:02.504Z,24.00
2022-08-10T07:51:14.535Z,24.40
2022-08-10T07:56:47.495Z,24.60
2022-08-10T08:01:56.546Z,24.68
2022-08-10T08:07:04.831Z,24.80
2022-08-10T08:12:13.496Z,25.10
2022-08-10T08:17:19.566Z,25.40
2022-08-10T08:24:10.409Z,25.70
2022-08-10T08:27:57.906Z,25.90
2022-08-10T08:33:02.962Z,26.10
2022-08-10T08:38:31.883Z,26.30
2022-08-10T08:43:47.671Z,26.60
2022-08-10T08:50:05.260Z,26.70
2022-08-10T08:55:55.338Z,26.70
2022-08-10T09:01:44.296Z,26.80
2022-08-10T09:07:39.469Z,27.10
2022-08-10T09:14:00.423Z,27.20
2022-08-10T09:19:50.390Z,27.30
2022-08-10T09:25:23.521Z,27.42
2022-08-10T09:31:10.960Z,27.70
2022-08-10T09:36:42.596Z,28.10
2022-08-10T09:42:06.256Z,28.24
2022-08-10T09:48:09.130Z,28.36
2022-08-10T09:53:45.815Z,28.66
2022-08-10T09:59:59.222Z,28.90
2022-08-10T10:05:36.413Z,29.10
2022-08-10T10:10:56.929Z,28.70
2022-08-10T10:16:34.637Z,28.60
2022-08-10T10:21:56.672Z,28.80
2022-08-10T10:27:51.661Z,28.90
2022-08-10T10:33:22.608Z,28.90
2022-08-10T10:38:40.330Z,28.70
2022-08-10T10:44:02.708Z,28.60
2022-08-10T10:49:26.535Z,28.70
2022-08-10T10:54:52.535Z,29.00
2022-08-10T11:00:13.506Z,29.30
2022-08-10T11:06:04.772Z,29.60
2022-08-10T11:12:00.759Z,29.76
2022-08-10T11:17:19.657Z,30.20
2022-08-10T11:22:49.280Z,30.32
2022-08-10T11:28:20.888Z,30.40
2022-08-10T11:34:04.120Z,30.68
2022-08-10T11:39:29.203Z,30.90
2022-08-10T11:44:49.076Z,30.60
2022-08-10T11:50:31.370Z,30.42
2022-08-10T11:55:35.813Z,30.00
2022-08-10T12:00:41.993Z,30.20
2022-08-10T12:05:54.726Z,30.50
2022-08-10T12:11:00.591Z,30.54
2022-08-10T12:16:15.798Z,30.56
2022-08-10T12:21:27.596Z,30.90
2022-08-10T12:26:45.298Z,31.36
2022-08-10T12:31:59.014Z,31.30
2022-08-10T12:37:25.150Z,31.08
2022-08-10T12:42:46.306Z,30.02
2022-08-10T12:48:34.831Z,29.20
2022-08-10T12:53:52.877Z,28.60
2022-08-10T12:59:04.576Z,28.80
2022-08-10T13:04:20.733Z,29.30
2022-08-10T13:09:29.636Z,29.80
2022-08-10T13:14:51.685Z,30.44
2022-08-10T13:20:03.407Z,31.20
2022-08-10T13:25:21.028Z,31.20
2022-08-10T13:30:37.294Z,30.30
2022-08-10T13:35:49.711Z,30.10
2022-08-10T13:41:03.632Z,30.10
2022-08-10T13:46:22.393Z,29.80
2022-08-10T13:51:53.998Z,30.00
2022-08-10T13:56:58.503Z,30.30
2022-08-10T14:02:05.622Z,30.50
2022-08-10T14:07:13.538Z,30.70
2022-08-10T14:12:19.403Z,30.20
2022-08-10T14:17:44.177Z,30.04
2022-08-10T14:22:52.094Z,29.50
2022-08-10T14:28:01.986Z,29.30
2022-08-10T14:33:09.640Z,29.52
2022-08-10T14:38:21.858Z,29.80
2022-08-10T14:43:54.857Z,29.60
2022-08-10T14:49:01.585Z,29.14
2022-08-10T14:54:32.784Z,28.70
2022-08-10T15:00:22.895Z,28.32
2022-08-10T15:05:09.163Z,28.10
2022-08-10T15:10:24.254Z,28.44
2022-08-10T15:15:32.221Z,29.98
2022-08-10T15:21:02.684Z,28.84
2022-08-10T15:26:25.808Z,28.10
2022-08-10T15:31:35.215Z,27.60
2022-08-10T15:37:40.564Z,27.46
2022-08-10T15:42:35.952Z,27.40
2022-08-10T15:47:45.672Z,27.20
2022-08-10T15:53:01.633Z,26.92
2022-08-10T15:58:38.843Z,26.80
2022-08-10T16:04:08.243Z,26.70
2022-08-10T16:10:22.465Z,26.40
2022-08-10T16:14:49.874Z,26.20
2022-08-10T16:19:59.661Z,27.20
2022-08-10T16:25:17.861Z,27.20
2022-08-10T16:30:22.187Z,26.90
2022-08-10T16:35:27.136Z,26.18
2022-08-10T16:40:33.443Z,25.66
2022-08-10T16:45:50.665Z,25.20
2022-08-10T16:51:02.685Z,24.90
2022-08-10T16:56:09.285Z,24.60
2022-08-10T17:01:21.149Z,24.40
2022-08-10T17:06:43.246Z,24.20
2022-08-10T17:11:53.975Z,24.00
2022-08-10T17:17:08.894Z,23.78
2022-08-10T17:22:21.126Z,23.74
2022-08-10T17:28:03.142Z,24.48
2022-08-10T17:33:10.442Z,24.40
2022-08-10T17:38:38.542Z,23.90
2022-08-10T17:43:58.223Z,23.76
2022-08-10T17:49:19.560Z,23.60
2022-08-10T17:54:33.659Z,23.10
2022-08-10T17:59:41.321Z,22.72
2022-08-10T18:05:16.351Z,22.40
2022-08-10T18:10:23.586Z,22.10
2022-08-10T18:15:32.943Z,21.80
2022-08-10T18:20:40.511Z,21.60
2022-08-10T18:25:48.458Z,21.36
2022-08-10T18:30:56.898Z,21.10
2022-08-10T18:36:06.874Z,20.90
2022-08-10T18:41:21.646Z,20.74
2022-08-10T18:46:30.255Z,20.54
2022-08-10T18:51:47.509Z,20.40
2022-08-10T18:57:06.797Z,20.20
2022-08-10T19:02:52.788Z,20.10
2022-08-10T19:08:49.394Z,19.90
2022-08-10T19:14:01.341Z,19.84
2022-08-10T19:19:36.106Z,19.80
2022-08-10T19:25:09.686Z,19.70
2022-08-10T19:30:18.183Z,19.52
2022-08-10T19:35:34.117Z,19.40
2022-08-10T19:41:44.562Z,19.20
2022-08-10T19:47:23.604Z,19.02
2022-08-10T19:53:04.576Z,19.00
2022-08-10T19:58:23.345Z,19.00
2022-08-10T20:03:55.728Z,19.00
2022-08-10T20:09:07.640Z,19.06
2022-08-10T20:14:43.100Z,18.96
2022-08-10T20:20:00.430Z,18.80
2022-08-10T20:25:13.994Z,18.60
2022-08-10T20:30:18.931Z,18.50
2022-08-10T20:35:33.988Z,18.40
2022-08-10T20:40:48.644Z,18.40
2022-08-10T20:46:25.587Z,18.40
2022-08-10T20:51:58.447Z,18.20
2022-08-10T20:58:08.150Z,18.00
2022-08-10T21:04:00.769Z,17.80
2022-08-10T21:09:23.707Z,17.80
2022-08-10T21:14:52.704Z,17.80
2022-08-10T21:20:30.641Z,17.80
2022-08-10T21:26:09.351Z,17.70
2022-08-10T21:31:47.148Z,17.50
2022-08-10T21:37:07.898Z,17.30
2022-08-10T21:43:09.101Z,17.20
2022-08-10T21:48:46.179Z,17.10
2022-08-10T21:54:36.326Z,17.00
2022-08-10T22:00:33.746Z,16.96
2022-08-10T22:05:59.036Z,16.90
2022-08-10T22:11:28.755Z,16.84
2022-08-10T22:17:59.937Z,16.80
2022-08-10T22:23:35.947Z,16.70
2022-08-10T22:29:11.190Z,16.60
2022-08-10T22:35:18.358Z,16.40
2022-08-10T22:40:45.177Z,16.20
2022-08-10T22:46:22.613Z,16.10
2022-08-10T22:51:36.057Z,16.00
2022-08-10T22:57:00.255Z,15.90
2022-08-10T23:02:14.869Z,15.90
2022-08-10T23:07:19.377Z,15.80
2022-08-10T23:12:47.865Z,15.80
2022-08-10T23:18:16.655Z,15.70
2022-08-10T23:23:27.383Z,15.60
2022-08-10T23:28:38.780Z,15.60
2022-08-10T23:34:03.527Z,15.60
2022-08-10T23:39:26.440Z,15.50
2022-08-10T23:44:56.551Z,15.50
2022-08-10T23:50:10.822Z,15.40
2022-08-10T23:55:25.003Z,15.30
